Forside
METAR-TAF:

METAR-TAF

Lufthavne :

Illinois Valley Regional Airport (Walter A. Duncan Field)

Peru / LaSalle, Illinois, USA

Breddekreds: 41-21-07N, længdekreds: 089-09-11W, højde: 199 m

Aktuelle vejr

Denne rapport blev lavet for 17 minutter siden, kl. 13:55 UTC
Vind 9 kt fra nordnordøst
Temperatur 3°C
Fugtighed 87%
Tryk 1018 hPa
Sigt: 16.1 km
Brudte skyer i en højde af 1300 ft
Overskyet i en højde af 4400 ft

METAR: KVYS 311355Z AUTO 03009KT 10SM BKN013 OVC044 03/01 A3006 RMK AO2 T00320007

Tid: 09:12 (14:12 UTC)


TAF: fraværende

Vejrobservationer og prognoser fra mere end 4000 lufthavne (METAR og TAF).

De gule og røde prikker repræsenterer de meteorologiske stationer.

Flyt musen over at se navnet på stationen.

Så klik over at se vejr observationer og prognoser.

At skifte det kort: Klik på de grønne knapper med et sort kors for at zoome ind; på den grønne knap med en bindestreg for at zoome ud; eller på de grønne pile for tilstødende kort.


METAR-TAF: